WRLO2: Waurika Lake

Data processed at Thu Jan 04 2018 23:03


All information presented herein is the property of the government of the United States of America and may be revised or deleted at any time without prior notice.
Dissemination of this information without the expressed written consent of the Public Affairs Office, Tulsa District U.S. Army Corps of Engineers is strictly prohibited.
These data are gathered electronically and, as presented, have not undergone any form of quality control. These data are not guaranteed to be valid or correct.
Go to home page.
Go to station list.

Upstream stations:

Downstream station:
Previous Day
Next Day
Current Day
    
SHEF ID:       WRLO2     Waurika Lake
STATION TYPE:  RESERVOIR
Normal Pool:  Bottom =   910.00, Top =   951.40

               PRECIP PRECIP(A) ELEVATION   STORAGE    INFLOW   RELEASE  AIR-TEMP  WIND-DIRWIND-SPEED REL-HUMID SOLAR-RAD   VOLTAGE  BAT-LOAD
                   in        in        ft     ac-ft       cfs       cfs         F       deg       mph         %      W/m2      volt      volt
              Ccp-Rev   Ccp-Rev   Ccp-Rev   Ccp-Rev  Regi-Rev  Regi-Rev   Ccp-Rev   Ccp-Rev   Ccp-Rev   Ccp-Rev   Ccp-Rev   Ccp-Rev   Ccp-Rev
(US/Central)
01/02 00:00      0.00      ----    951.04    186458         0         0     17.13     32.60     10.53     65.80      0.00     12.82     12.54
01/02 01:00      0.00      ----    951.03    186359         0         0     15.82     26.50     10.53     70.32      0.00     12.79     12.54
01/02 02:00      0.00      ----    951.04    186458         0         0     15.15     35.20     11.19     72.09      0.00     12.76     12.54
01/02 03:00      0.00      ----    951.03    186359         0         0     13.95     29.10     11.19     72.70      0.00     12.74     12.48
01/02 04:00      0.00      ----    951.04    186458         0         0     14.61     23.40     12.73     75.39      0.00     12.73     12.48
01/02 05:00      0.00      ----    951.03    186359         0         0     14.83     21.60     12.73     73.13      0.00     12.71     12.42
01/02 06:00      0.00      ----    951.04    186458         0         0     15.71     13.00     13.60     74.66      0.00     12.69     12.42
01/02 07:00      0.00      ----    951.03    186359         0         0     15.71     38.90      8.56     71.54      0.00     12.68     12.42
01/02 08:00      0.00      ----    951.04    186458         0         0     16.59     63.20      6.58     69.04      1.00     12.68     12.36
01/02 09:00      0.00      ----    951.04    186458         0         0     17.47     42.90      9.65     67.02     32.00     12.79     12.36
01/02 10:00      0.00      ----    951.03    186359         0         0     18.90     58.50      7.46     61.84     84.00     12.97     12.42
01/02 11:00      0.00      ----    951.03    186359         0         0     20.10     35.00      4.61     59.76    126.00     13.16     12.60
01/02 12:00      0.00      ----    951.03    186359         9         0     21.42     67.00      2.19     57.14    157.00     13.38     12.36
01/02 13:00      0.00      ----    951.03    186359        18         0     22.41    331.90      2.41     54.88    189.00     13.49     13.00
01/02 14:00      0.00      ----    951.04    186458      -402         0     23.07    299.70      4.17     53.05    157.00     13.30     13.07
01/02 15:00      0.00      ----    951.04    186458        27         0     23.18    325.30      5.05     52.74    104.00     13.19     12.89
01/02 16:00      0.00      ----    951.02    186259        80         0     23.61    330.30      7.90     51.34    103.00     13.19     12.71
01/02 17:00      0.00      ----    951.02    186259        80         0     23.61    271.30      3.73     52.13     62.00     12.93     12.65
01/02 18:00      0.00      ----    951.03    186359        71         0     23.61    312.10      3.95     53.96      9.00     12.80     12.48
01/02 19:00      0.00      ----    951.03    186359        62         0     23.29    344.80      8.34     55.37      0.00     12.73     12.30
01/02 20:00      0.00      ----    951.03    186359        54         0     22.96    298.00      2.85     53.47      0.00     12.70     12.42
01/02 21:00      0.00      ----    951.02    186259         0         0     20.32    212.50      3.73     59.33      0.00     12.67     12.30
01/02 22:00      0.00      ----    951.03    186359         0         0     18.23    201.50      2.63     64.34      0.00     12.64     12.24
01/02 23:00      0.00      ----    951.03    186359         0         0     17.02    203.90      2.85     66.84      0.00     12.61     12.30